Time;durP1;ratioP1;P1;durP2;ratioP2;P2;SDS_P1;SDS_P2;PMS_P1;PMS_P2;Temp;Humidity;BMP_temperature;BMP_pressure;BME280_temperature;BME280_humidity;BME280_pressure;Samples;Min_cycle;Max_cycle;Signal;HPM_P1;HPM_P2
2023/04/20 00:00:31;;;;;;;;;10.25;9.25;;;;;;;;4978352;28;45465;-85
2023/04/20 00:02:57;;;;;;;;;7.50;7.25;;;;;;;;4978090;28;45430;-83
2023/04/20 00:05:22;;;;;;;;;9.25;7.50;;;;;;;;4977670;28;45410;-84
2023/04/20 00:07:48;;;;;;;;;10.00;9.00;;;;;;;;4977126;28;46206;-83
2023/04/20 00:10:14;;;;;;;;;12.75;11.75;;;;;;;;4978492;28;45565;-85
2023/04/20 00:12:40;;;;;;;;;14.25;9.75;;;;;;;;4977169;28;45497;-85
2023/04/20 00:15:06;;;;;;;;;12.75;10.50;;;;;;;;4977672;28;45338;-84
2023/04/20 00:17:31;;;;;;;;;13.00;11.25;;;;;;;;4977129;28;46347;-84
2023/04/20 00:19:56;;;;;;;;;10.00;9.50;;;;;;;;4978610;28;45390;-83
2023/04/20 00:22:21;;;;;;;;;8.50;8.00;;;;;;;;4976673;28;45269;-82
2023/04/20 00:24:46;;;;;;;;;10.00;9.75;;;;;;;;4976552;28;45539;-83
2023/04/20 00:27:12;;;;;;;;;12.75;10.25;;;;;;;;4977872;28;46325;-86
2023/04/20 00:29:37;;;;;;;;;9.50;9.50;;;;;;;;4977814;28;45299;-85
2023/04/20 00:32:02;;;;;;;;;7.25;7.25;;;;;;;;4976754;28;45384;-83
2023/04/20 00:34:27;;;;;;;;;13.25;12.00;;;;;;;;4977306;28;45215;-83
2023/04/20 00:36:53;;;;;;;;;9.00;8.25;;;;;;;;4977845;28;45300;-84
2023/04/20 00:39:18;;;;;;;;;10.25;8.75;;;;;;;;4978224;28;45438;-83
2023/04/20 00:41:43;;;;;;;;;13.00;10.25;;;;;;;;4978707;28;45330;-84
2023/04/20 00:44:12;;;;;;;;;8.25;8.25;;;;;;;;4978486;28;45243;-83
2023/04/20 00:46:37;;;;;;;;;11.50;9.75;;;;;;;;4977833;28;47323;-84
2023/04/20 00:49:03;;;;;;;;;9.25;9.00;;;;;;;;4977888;28;45448;-83
2023/04/20 00:51:28;;;;;;;;;7.75;7.75;;;;;;;;4977944;28;45433;-83
2023/04/20 00:53:53;;;;;;;;;7.75;7.75;;;;;;;;4978104;28;45400;-83
2023/04/20 00:56:19;;;;;;;;;10.75;8.75;;;;;;;;4961717;28;46108;-81
2023/04/20 00:58:44;;;;;;;;;11.75;10.75;;;;;;;;4959085;28;45467;-80
2023/04/20 01:01:10;;;;;;;;;8.00;8.00;;;;;;;;4967631;28;45389;-81
2023/04/20 01:03:35;;;;;;;;;9.25;9.25;;;;;;;;4979818;28;45503;-82
2023/04/20 01:06:01;;;;;;;;;10.00;9.00;;;;;;;;4981061;28;45621;-81
2023/04/20 01:08:27;;;;;;;;;8.75;8.75;;;;;;;;4983436;28;45318;-81
2023/04/20 01:10:55;;;;;;;;;13.75;12.00;;;;;;;;4985505;28;45376;-84
2023/04/20 01:13:20;;;;;;;;;13.00;11.00;;;;;;;;4991641;28;45499;-82
2023/04/20 01:15:46;;;;;;;;;10.50;9.50;;;;;;;;4995890;28;46679;-82
2023/04/20 01:18:11;;;;;;;;;10.50;10.25;;;;;;;;4994584;28;44690;-82
2023/04/20 01:20:36;;;;;;;;;11.00;8.50;;;;;;;;4986759;28;45408;-82
2023/04/20 01:23:02;;;;;;;;;10.75;8.00;;;;;;;;4976945;28;45413;-83
2023/04/20 01:25:27;;;;;;;;;8.25;8.25;;;;;;;;4976099;28;47440;-82
2023/04/20 01:27:52;;;;;;;;;10.50;9.50;;;;;;;;4976529;28;45380;-81
2023/04/20 01:30:18;;;;;;;;;11.25;8.50;;;;;;;;4976740;28;45505;-82
2023/04/20 01:32:43;;;;;;;;;6.25;6.25;;;;;;;;4976123;28;45380;-82
2023/04/20 01:35:09;;;;;;;;;11.00;9.75;;;;;;;;4976892;28;45502;-85
2023/04/20 01:37:34;;;;;;;;;10.00;10.00;;;;;;;;4976941;28;45491;-84
2023/04/20 01:40:00;;;;;;;;;10.75;8.50;;;;;;;;4986017;28;45333;-84
2023/04/20 01:42:25;;;;;;;;;8.00;8.00;;;;;;;;4998082;28;45504;-84
2023/04/20 01:44:50;;;;;;;;;9.00;9.00;;;;;;;;4996421;28;45345;-83
2023/04/20 01:47:15;;;;;;;;;11.50;8.25;;;;;;;;4987605;28;45194;-85
2023/04/20 01:49:40;;;;;;;;;10.75;9.25;;;;;;;;4976515;28;45423;-85
2023/04/20 01:52:06;;;;;;;;;9.00;9.00;;;;;;;;4976780;28;45412;-83
2023/04/20 01:54:31;;;;;;;;;12.00;9.75;;;;;;;;4976335;28;46282;-85
2023/04/20 01:56:56;;;;;;;;;8.75;7.50;;;;;;;;4975180;28;45307;-83
2023/04/20 01:59:22;;;;;;;;;11.00;9.00;;;;;;;;4976396;28;45317;-83
2023/04/20 02:01:47;;;;;;;;;9.25;8.00;;;;;;;;4976204;28;45401;-82
2023/04/20 02:04:12;;;;;;;;;7.75;7.75;;;;;;;;4976221;28;47193;-84
2023/04/20 02:06:37;;;;;;;;;9.25;8.00;;;;;;;;4976395;28;45297;-84
2023/04/20 02:09:02;;;;;;;;;9.00;9.00;;;;;;;;4976364;28;45283;-84
2023/04/20 02:11:28;;;;;;;;;11.50;9.50;;;;;;;;4976045;28;45302;-83
2023/04/20 02:13:53;;;;;;;;;5.50;5.50;;;;;;;;4976117;28;45767;-84
2023/04/20 02:16:18;;;;;;;;;13.75;10.50;;;;;;;;4976011;28;45305;-83
2023/04/20 02:18:44;;;;;;;;;6.00;6.00;;;;;;;;4976324;28;45289;-83
2023/04/20 02:21:10;;;;;;;;;8.50;8.50;;;;;;;;4976000;28;45554;-82
2023/04/20 02:23:35;;;;;;;;;5.50;4.50;;;;;;;;4975647;28;46369;-86
2023/04/20 02:26:00;;;;;;;;;9.75;8.50;;;;;;;;4975994;28;45395;-83
2023/04/20 02:28:26;;;;;;;;;7.75;7.25;;;;;;;;4974897;28;45340;-83
2023/04/20 02:30:51;;;;;;;;;6.25;6.25;;;;;;;;4976122;28;45377;-83
2023/04/20 02:33:16;;;;;;;;;7.50;7.50;;;;;;;;4976290;28;46309;-85
2023/04/20 02:35:41;;;;;;;;;8.50;8.50;;;;;;;;4976261;28;45318;-84
2023/04/20 02:38:06;;;;;;;;;7.00;7.00;;;;;;;;4976328;28;45355;-84
2023/04/20 02:40:32;;;;;;;;;7.00;7.00;;;;;;;;4976131;28;45329;-83
2023/04/20 02:42:57;;;;;;;;;9.75;6.00;;;;;;;;4975943;28;45589;-84
2023/04/20 02:45:22;;;;;;;;;8.75;8.75;;;;;;;;4975590;28;45462;-83
2023/04/20 02:47:47;;;;;;;;;9.75;7.75;;;;;;;;4975776;28;45376;-84
2023/04/20 02:50:13;;;;;;;;;9.00;6.75;;;;;;;;4975998;28;45530;-85
2023/04/20 02:52:38;;;;;;;;;8.25;8.00;;;;;;;;4975501;28;46054;-86
2023/04/20 02:55:03;;;;;;;;;7.25;7.25;;;;;;;;4975548;28;45393;-85
2023/04/20 02:57:29;;;;;;;;;6.25;6.25;;;;;;;;4979033;28;45378;-82
2023/04/20 02:59:54;;;;;;;;;10.75;7.00;;;;;;;;4978654;28;45397;-84
2023/04/20 03:02:19;;;;;;;;;7.25;7.25;;;;;;;;4978549;28;45427;-81
2023/04/20 03:04:45;;;;;;;;;9.00;8.50;;;;;;;;4979194;28;45412;-80
2023/04/20 03:07:10;;;;;;;;;8.75;7.75;;;;;;;;4979160;28;45391;-82
2023/04/20 03:09:36;;;;;;;;;7.75;6.25;;;;;;;;4979074;28;45425;-84
2023/04/20 03:12:01;;;;;;;;;7.25;7.25;;;;;;;;4977379;28;47379;-82
2023/04/20 03:14:27;;;;;;;;;7.25;7.25;;;;;;;;4978622;28;45377;-82
2023/04/20 03:16:52;;;;;;;;;6.00;6.00;;;;;;;;4978884;28;45891;-82
2023/04/20 03:19:17;;;;;;;;;9.00;7.75;;;;;;;;4978855;28;45353;-83
2023/04/20 03:21:43;;;;;;;;;9.50;9.25;;;;;;;;4978669;28;45912;-83
2023/04/20 03:24:08;;;;;;;;;5.75;5.50;;;;;;;;4978369;28;45595;-84
2023/04/20 03:26:33;;;;;;;;;10.50;8.00;;;;;;;;4979211;28;45364;-84
2023/04/20 03:28:59;;;;;;;;;10.75;7.75;;;;;;;;4978860;28;45396;-84
2023/04/20 03:31:24;;;;;;;;;11.00;8.25;;;;;;;;4978270;28;47351;-83
2023/04/20 03:33:49;;;;;;;;;7.75;7.75;;;;;;;;4978558;28;45358;-84
2023/04/20 03:36:14;;;;;;;;;6.00;6.00;;;;;;;;4977218;28;45326;-83
2023/04/20 03:38:39;;;;;;;;;7.50;7.50;;;;;;;;4978731;28;45393;-84
2023/04/20 03:41:06;;;;;;;;;9.50;9.00;;;;;;;;4978990;28;47144;-84
2023/04/20 03:43:32;;;;;;;;;6.00;6.00;;;;;;;;4979620;28;45466;-83
2023/04/20 03:45:57;;;;;;;;;10.00;8.75;;;;;;;;4978088;28;45329;-82
2023/04/20 03:48:22;;;;;;;;;6.50;5.75;;;;;;;;4978272;28;45484;-83
2023/04/20 03:50:47;;;;;;;;;6.75;6.75;;;;;;;;4978062;28;45506;-82
2023/04/20 03:53:12;;;;;;;;;8.25;7.50;;;;;;;;4977828;28;45582;-83
2023/04/20 03:55:38;;;;;;;;;8.25;6.50;;;;;;;;4967779;28;45421;-83
2023/04/20 03:58:06;;;;;;;;;6.50;4.50;;;;;;;;4958851;28;45436;-83
2023/04/20 04:00:31;;;;;;;;;4.00;4.00;;;;;;;;4958700;28;46096;-83
2023/04/20 04:02:56;;;;;;;;;6.75;4.75;;;;;;;;4958797;28;45292;-83
2023/04/20 04:05:21;;;;;;;;;8.50;7.50;;;;;;;;4969105;28;45413;-81
2023/04/20 04:07:46;;;;;;;;;6.75;6.75;;;;;;;;4977615;28;45356;-81
2023/04/20 04:10:12;;;;;;;;;4.00;4.00;;;;;;;;4978038;28;46110;-82
2023/04/20 04:12:37;;;;;;;;;7.25;5.25;;;;;;;;4978093;28;45325;-82
2023/04/20 04:15:02;;;;;;;;;9.50;7.75;;;;;;;;4978297;28;45307;-83
2023/04/20 04:17:28;;;;;;;;;8.50;6.00;;;;;;;;4976796;28;45471;-82
2023/04/20 04:19:53;;;;;;;;;3.00;3.00;;;;;;;;4977206;28;46271;-83
2023/04/20 04:22:18;;;;;;;;;3.00;2.00;;;;;;;;4978673;28;45326;-85
2023/04/20 04:24:43;;;;;;;;;11.50;7.00;;;;;;;;4979832;28;45246;-83
2023/04/20 04:27:10;;;;;;;;;6.50;5.50;;;;;;;;4979608;28;45362;-83
2023/04/20 04:29:37;;;;;;;;;9.50;7.75;;;;;;;;4978949;28;47480;-81
2023/04/20 04:32:03;;;;;;;;;8.00;7.00;;;;;;;;4985291;28;45367;-82
2023/04/20 04:34:32;;;;;;;;;3.75;3.00;;;;;;;;4995716;28;45480;-82
2023/04/20 04:36:58;;;;;;;;;5.00;5.00;;;;;;;;4992284;28;45487;-82
2023/04/20 04:39:23;;;;;;;;;7.50;6.50;;;;;;;;4977608;28;45348;-84
2023/04/20 04:41:48;;;;;;;;;6.00;6.00;;;;;;;;4977431;28;45393;-83
2023/04/20 04:44:14;;;;;;;;;7.25;7.00;;;;;;;;4977840;28;45465;-82
2023/04/20 04:46:40;;;;;;;;;5.50;4.00;;;;;;;;4977390;28;45366;-82
2023/04/20 04:49:06;;;;;;;;;6.25;6.00;;;;;;;;4977172;28;45457;-84
2023/04/20 04:51:32;;;;;;;;;8.25;7.50;;;;;;;;4976213;28;46058;-83
2023/04/20 04:53:57;;;;;;;;;7.00;6.25;;;;;;;;4975946;28;45281;-82
2023/04/20 04:56:22;;;;;;;;;10.50;7.00;;;;;;;;4960366;28;45598;-82
2023/04/20 04:58:47;;;;;;;;;7.00;7.00;;;;;;;;4957815;28;47298;-83
2023/04/20 05:01:12;;;;;;;;;6.25;5.50;;;;;;;;4957578;28;45489;-82
2023/04/20 05:03:38;;;;;;;;;4.00;4.00;;;;;;;;4957756;28;45399;-82
2023/04/20 05:06:03;;;;;;;;;4.50;4.00;;;;;;;;4974539;28;45362;-82
2023/04/20 05:08:29;;;;;;;;;10.75;8.75;;;;;;;;4976955;28;47418;-81
2023/04/20 05:10:55;;;;;;;;;7.25;4.75;;;;;;;;4976942;28;45446;-83
2023/04/20 05:13:21;;;;;;;;;7.25;7.25;;;;;;;;4975793;28;45351;-81
2023/04/20 05:15:46;;;;;;;;;7.75;7.75;;;;;;;;4977169;28;45173;-82
2023/04/20 05:18:11;;;;;;;;;7.75;7.75;;;;;;;;4976549;28;45493;-82
2023/04/20 05:20:36;;;;;;;;;8.00;6.75;;;;;;;;4977285;28;45262;-82
2023/04/20 05:23:01;;;;;;;;;9.25;5.75;;;;;;;;4976930;28;45381;-83
2023/04/20 05:25:27;;;;;;;;;9.00;9.00;;;;;;;;4976815;28;45312;-81
2023/04/20 05:27:52;;;;;;;;;6.00;5.00;;;;;;;;4977097;28;45243;-81
2023/04/20 05:30:17;;;;;;;;;9.25;9.25;;;;;;;;4977605;28;45435;-80
2023/04/20 05:32:42;;;;;;;;;9.00;7.50;;;;;;;;4976887;28;45369;-82
2023/04/20 05:35:08;;;;;;;;;6.00;5.50;;;;;;;;4976907;28;45318;-80
2023/04/20 05:37:33;;;;;;;;;8.75;7.00;;;;;;;;4975013;28;47448;-81
2023/04/20 05:39:58;;;;;;;;;10.25;8.75;;;;;;;;4976737;28;45402;-83
2023/04/20 05:42:23;;;;;;;;;10.75;9.50;;;;;;;;4987100;28;45337;-79
2023/04/20 05:44:48;;;;;;;;;9.25;8.75;;;;;;;;4993269;28;45291;-81
2023/04/20 05:47:14;;;;;;;;;9.25;7.50;;;;;;;;4982052;28;45432;-81
2023/04/20 05:49:39;;;;;;;;;8.50;8.00;;;;;;;;4986146;28;45345;-80
2023/04/20 05:52:04;;;;;;;;;10.50;8.25;;;;;;;;4996086;28;45232;-80
2023/04/20 05:54:30;;;;;;;;;5.25;5.25;;;;;;;;4979900;28;45313;-79
2023/04/20 05:56:56;;;;;;;;;8.25;7.25;;;;;;;;4976099;28;46485;-80
2023/04/20 05:59:22;;;;;;;;;8.25;6.75;;;;;;;;4975315;28;45441;-80
2023/04/20 06:01:47;;;;;;;;;11.50;10.25;;;;;;;;4976552;28;45442;-80
2023/04/20 06:04:12;;;;;;;;;9.50;8.50;;;;;;;;4976407;28;45436;-79
2023/04/20 06:06:37;;;;;;;;;11.25;9.00;;;;;;;;4976121;28;45582;-81
2023/04/20 06:09:03;;;;;;;;;12.25;9.00;;;;;;;;4976163;28;45722;-80
2023/04/20 06:11:29;;;;;;;;;9.75;9.00;;;;;;;;4976417;28;45452;-79
2023/04/20 06:13:54;;;;;;;;;11.25;11.00;;;;;;;;4976282;28;45392;-79
2023/04/20 06:16:19;;;;;;;;;11.00;8.00;;;;;;;;4974928;28;47559;-79
2023/04/20 06:18:44;;;;;;;;;8.75;7.75;;;;;;;;4976346;28;45590;-79
2023/04/20 06:21:10;;;;;;;;;10.00;8.50;;;;;;;;4976079;28;45683;-79
2023/04/20 06:23:36;;;;;;;;;9.50;9.50;;;;;;;;4975920;28;45420;-78
2023/04/20 06:26:01;;;;;;;;;9.00;9.00;;;;;;;;4975981;28;45709;-78
2023/04/20 06:28:27;;;;;;;;;7.25;6.75;;;;;;;;4975784;28;45397;-78
2023/04/20 06:30:52;;;;;;;;;11.50;11.50;;;;;;;;4975299;28;45507;-78
2023/04/20 06:33:17;;;;;;;;;4.00;3.00;;;;;;;;4975987;28;45353;-78
2023/04/20 06:35:42;;;;;;;;;11.25;11.25;;;;;;;;4975639;28;45311;-78
2023/04/20 06:38:08;;;;;;;;;9.75;9.00;;;;;;;;4975452;28;45405;-79
2023/04/20 06:40:33;;;;;;;;;8.00;6.50;;;;;;;;4976087;28;45308;-77
2023/04/20 06:42:58;;;;;;;;;10.00;10.00;;;;;;;;4975947;28;45493;-78
2023/04/20 06:45:23;;;;;;;;;4.00;2.00;;;;;;;;4974393;28;46173;-81
2023/04/20 06:47:49;;;;;;;;;12.25;8.00;;;;;;;;4975624;28;45353;-81
2023/04/20 06:50:14;;;;;;;;;7.00;7.00;;;;;;;;4975707;28;45723;-80
2023/04/20 06:52:39;;;;;;;;;7.00;7.00;;;;;;;;4975499;28;45445;-80
2023/04/20 06:55:05;;;;;;;;;12.00;9.75;;;;;;;;4969426;28;46628;-81
2023/04/20 06:57:31;;;;;;;;;9.75;9.25;;;;;;;;4954672;28;45363;-80
2023/04/20 06:59:57;;;;;;;;;9.75;8.25;;;;;;;;4956375;28;45452;-81
2023/04/20 07:02:23;;;;;;;;;12.75;9.75;;;;;;;;4956237;28;45374;-80
2023/04/20 07:04:48;;;;;;;;;10.25;9.00;;;;;;;;4962621;28;45360;-80
2023/04/20 07:07:13;;;;;;;;;12.00;10.25;;;;;;;;4975570;28;45506;-82
2023/04/20 07:09:38;;;;;;;;;10.50;8.75;;;;;;;;4967453;28;45468;-81
2023/04/20 07:12:04;;;;;;;;;13.75;13.75;;;;;;;;4955740;28;45330;-81
2023/04/20 07:14:29;;;;;;;;;15.00;11.50;;;;;;;;4956593;28;46621;-80
2023/04/20 07:16:54;;;;;;;;;10.00;10.00;;;;;;;;4955942;28;45487;-79
2023/04/20 07:19:20;;;;;;;;;10.25;10.25;;;;;;;;4956143;28;45638;-81
2023/04/20 07:21:45;;;;;;;;;10.75;10.75;;;;;;;;4970392;28;45273;-80
2023/04/20 07:24:10;;;;;;;;;12.25;9.00;;;;;;;;4975769;28;46513;-80
2023/04/20 07:26:35;;;;;;;;;9.25;8.25;;;;;;;;4975861;28;45286;-80
2023/04/20 07:29:01;;;;;;;;;10.25;10.00;;;;;;;;4976242;28;45369;-81
2023/04/20 07:31:27;;;;;;;;;14.00;11.00;;;;;;;;4976225;28;45313;-81
2023/04/20 07:33:52;;;;;;;;;6.25;4.25;;;;;;;;4977473;28;45339;-80
2023/04/20 07:36:18;;;;;;;;;11.50;11.50;;;;;;;;4976764;28;45202;-79
2023/04/20 07:38:47;;;;;;;;;13.50;11.00;;;;;;;;4976721;28;45195;-80
2023/04/20 07:41:12;;;;;;;;;8.75;7.00;;;;;;;;4980722;28;45420;-81
2023/04/20 07:43:38;;;;;;;;;5.25;5.25;;;;;;;;4993286;28;45211;-78
2023/04/20 07:46:03;;;;;;;;;10.25;10.25;;;;;;;;4993922;28;45798;-81
2023/04/20 07:48:28;;;;;;;;;7.75;7.75;;;;;;;;4987860;28;44826;-80
2023/04/20 07:50:54;;;;;;;;;10.00;7.00;;;;;;;;4980310;28;45380;-81
2023/04/20 07:53:19;;;;;;;;;9.50;8.00;;;;;;;;4980318;28;45470;-80
2023/04/20 07:55:44;;;;;;;;;9.25;9.25;;;;;;;;4966888;28;45459;-81
2023/04/20 07:58:09;;;;;;;;;8.75;8.75;;;;;;;;4959055;28;45415;-81
2023/04/20 08:00:34;;;;;;;;;14.00;14.00;;;;;;;;4959008;28;45496;-81
2023/04/20 08:03:00;;;;;;;;;8.00;8.00;;;;;;;;4958798;28;45862;-81
2023/04/20 08:05:25;;;;;;;;;8.00;6.50;;;;;;;;4970248;28;45396;-82
2023/04/20 08:07:51;;;;;;;;;12.00;12.00;;;;;;;;4978450;28;46037;-81
2023/04/20 08:10:16;;;;;;;;;11.00;10.00;;;;;;;;4978041;28;45302;-81
2023/04/20 08:12:41;;;;;;;;;13.50;12.25;;;;;;;;4977824;28;46168;-81
2023/04/20 08:15:07;;;;;;;;;11.25;11.00;;;;;;;;4978244;28;45517;-81
2023/04/20 08:17:32;;;;;;;;;11.25;10.25;;;;;;;;4977806;28;45440;-81
2023/04/20 08:19:57;;;;;;;;;11.00;10.75;;;;;;;;4977935;28;45458;-82
2023/04/20 08:22:28;;;;;;;;;11.50;10.75;;;;;;;;4977621;28;47610;-81
2023/04/20 08:24:54;;;;;;;;;14.00;13.25;;;;;;;;4977625;28;45518;-81
2023/04/20 08:27:19;;;;;;;;;11.25;11.25;;;;;;;;4977650;28;45457;-82
2023/04/20 08:29:45;;;;;;;;;13.50;11.50;;;;;;;;4978108;28;45422;-81
2023/04/20 08:32:11;;;;;;;;;15.25;12.75;;;;;;;;4977389;28;46913;-81
2023/04/20 08:34:36;;;;;;;;;14.50;14.00;;;;;;;;4976042;28;45377;-82
2023/04/20 08:37:02;;;;;;;;;12.25;12.25;;;;;;;;4977760;28;45377;-81
2023/04/20 08:39:28;;;;;;;;;13.25;13.25;;;;;;;;4977592;28;45454;-82
2023/04/20 08:41:54;;;;;;;;;12.25;11.25;;;;;;;;4977314;28;45382;-81
2023/04/20 08:44:20;;;;;;;;;12.75;11.75;;;;;;;;4977925;28;45404;-81
2023/04/20 08:46:46;;;;;;;;;11.75;11.75;;;;;;;;4976523;28;45295;-82
2023/04/20 08:49:11;;;;;;;;;13.75;13.75;;;;;;;;4977456;28;45339;-81
2023/04/20 08:51:38;;;;;;;;;14.25;14.25;;;;;;;;4976265;28;45476;-80
2023/04/20 08:54:06;;;;;;;;;16.00;13.00;;;;;;;;4976676;28;45476;-82
2023/04/20 08:56:35;;;;;;;;;14.50;14.00;;;;;;;;4977518;28;45376;-82
2023/04/20 08:59:02;;;;;;;;;14.50;12.75;;;;;;;;4977753;28;45296;-81
2023/04/20 09:01:28;;;;;;;;;10.50;10.50;;;;;;;;4977631;28;45514;-82
2023/04/20 09:03:53;;;;;;;;;15.25;14.00;;;;;;;;4978259;28;45457;-81
2023/04/20 09:06:18;;;;;;;;;12.75;12.25;;;;;;;;4978114;28;45445;-81
2023/04/20 09:08:44;;;;;;;;;13.50;13.50;;;;;;;;4977304;28;45724;-80
2023/04/20 09:11:22;;;;;;;;;10.50;10.00;;;;;;;;4977211;28;46421;-81
2023/04/20 09:13:58;;;;;;;;;14.00;11.00;;;;;;;;4976803;28;45491;-81
2023/04/20 09:16:23;;;;;;;;;10.00;9.50;;;;;;;;4976589;28;45326;-81
2023/04/20 09:18:53;;;;;;;;;12.25;12.00;;;;;;;;4977044;28;45274;-81
2023/04/20 09:21:18;;;;;;;;;12.00;12.00;;;;;;;;4976928;28;45550;-80
2023/04/20 09:23:54;;;;;;;;;9.75;8.75;;;;;;;;4976693;28;45375;-81
2023/04/20 09:26:19;;;;;;;;;8.75;8.75;;;;;;;;4977303;28;45552;-80
2023/04/20 09:28:45;;;;;;;;;13.00;9.25;;;;;;;;4976696;28;45531;-80
2023/04/20 09:31:20;;;;;;;;;9.00;9.00;;;;;;;;4976548;28;47096;-80
2023/04/20 09:33:54;;;;;;;;;10.00;10.00;;;;;;;;4976885;28;45387;-82
2023/04/20 09:36:20;;;;;;;;;5.50;5.50;;;;;;;;4976910;28;45404;-82
2023/04/20 09:38:45;;;;;;;;;10.50;9.00;;;;;;;;4976563;28;45388;-81
2023/04/20 09:41:10;;;;;;;;;12.25;11.50;;;;;;;;4976538;28;46456;-81
2023/04/20 09:43:35;;;;;;;;;11.75;11.75;;;;;;;;4976680;28;45385;-83
2023/04/20 09:46:01;;;;;;;;;9.00;8.00;;;;;;;;4976798;28;45239;-81
2023/04/20 09:48:27;;;;;;;;;9.25;8.25;;;;;;;;4975168;28;45348;-81
2023/04/20 09:50:52;;;;;;;;;7.25;7.00;;;;;;;;4976593;28;45436;-82
2023/04/20 09:53:18;;;;;;;;;6.00;6.00;;;;;;;;4976493;28;45266;-82
2023/04/20 09:55:47;;;;;;;;;10.00;10.00;;;;;;;;4965263;28;45393;-82
2023/04/20 09:58:12;;;;;;;;;10.50;10.50;;;;;;;;4955605;28;45471;-83
2023/04/20 10:00:38;;;;;;;;;10.00;10.00;;;;;;;;4956440;28;45489;-83
2023/04/20 10:03:03;;;;;;;;;9.75;9.75;;;;;;;;4956994;28;45396;-82
2023/04/20 10:05:34;;;;;;;;;11.00;10.25;;;;;;;;4969500;28;45560;-82
2023/04/20 10:08:02;;;;;;;;;16.25;12.25;;;;;;;;4976440;28;45417;-82
2023/04/20 10:10:28;;;;;;;;;10.75;9.75;;;;;;;;4976132;28;47233;-82
2023/04/20 10:12:54;;;;;;;;;12.50;11.25;;;;;;;;4986834;28;45302;-82
2023/04/20 10:15:20;;;;;;;;;12.75;12.25;;;;;;;;4995779;28;45375;-82
2023/04/20 10:17:46;;;;;;;;;9.50;9.50;;;;;;;;4980438;28;45440;-83
2023/04/20 10:20:19;;;;;;;;;3.25;3.25;;;;;;;;4974526;28;47201;-81
2023/04/20 10:22:44;;;;;;;;;9.75;9.75;;;;;;;;4975841;28;45385;-82
2023/04/20 10:25:17;;;;;;;;;7.25;7.25;;;;;;;;4975252;28;45447;-81
2023/04/20 10:27:58;;;;;;;;;9.00;9.00;;;;;;;;4974740;28;45388;-82
2023/04/20 10:30:25;;;;;;;;;9.25;8.50;;;;;;;;4975231;28;47388;-82
2023/04/20 10:33:01;;;;;;;;;10.50;9.25;;;;;;;;4974235;28;45492;-82
2023/04/20 10:35:26;;;;;;;;;10.25;10.00;;;;;;;;4977092;28;45336;-82
2023/04/20 10:37:51;;;;;;;;;9.00;8.00;;;;;;;;4984006;28;45361;-81
2023/04/20 10:40:25;;;;;;;;;12.25;9.25;;;;;;;;4984546;28;48749;-82
2023/04/20 10:42:50;;;;;;;;;7.25;7.25;;;;;;;;4983081;28;45603;-81
2023/04/20 10:45:15;;;;;;;;;6.25;5.00;;;;;;;;4986831;28;45623;-82
2023/04/20 10:47:41;;;;;;;;;11.75;10.25;;;;;;;;4983793;28;45290;-82
2023/04/20 10:50:06;;;;;;;;;10.00;10.00;;;;;;;;4975925;28;46075;-84
2023/04/20 10:52:35;;;;;;;;;14.00;12.25;;;;;;;;4976000;28;45444;-81
2023/04/20 10:55:00;;;;;;;;;10.75;10.75;;;;;;;;4971104;28;45367;-83
2023/04/20 10:57:26;;;;;;;;;12.75;11.00;;;;;;;;4955616;28;45564;-81
2023/04/20 10:59:51;;;;;;;;;11.75;11.75;;;;;;;;4955695;28;46479;-82
2023/04/20 11:02:16;;;;;;;;;9.75;9.00;;;;;;;;4957338;28;45239;-80
2023/04/20 11:04:41;;;;;;;;;10.25;10.25;;;;;;;;4974885;28;45321;-82
2023/04/20 11:07:07;;;;;;;;;15.25;13.00;;;;;;;;4990301;28;45425;-80
2023/04/20 11:09:33;;;;;;;;;12.00;10.75;;;;;;;;4994718;28;45294;-84
2023/04/20 11:12:02;;;;;;;;;14.25;9.00;;;;;;;;4989550;28;45348;-82
2023/04/20 11:14:28;;;;;;;;;14.50;13.50;;;;;;;;4984687;28;44808;-84
2023/04/20 11:16:54;;;;;;;;;13.25;13.25;;;;;;;;4986972;28;45358;-82
2023/04/20 11:19:23;;;;;;;;;9.75;9.75;;;;;;;;4983066;28;45380;-82
2023/04/20 11:21:49;;;;;;;;;12.00;12.00;;;;;;;;4978825;28;45475;-82
2023/04/20 11:24:20;;;;;;;;;13.00;13.00;;;;;;;;4979325;28;45393;-83
2023/04/20 11:26:48;;;;;;;;;13.75;12.00;;;;;;;;4978899;28;45504;-83
2023/04/20 11:29:25;;;;;;;;;12.50;11.00;;;;;;;;4978498;28;47353;-82
2023/04/20 11:31:50;;;;;;;;;15.50;10.75;;;;;;;;4978760;28;45463;-83
2023/04/20 11:34:16;;;;;;;;;13.50;13.25;;;;;;;;4978439;28;45374;-81
2023/04/20 11:36:41;;;;;;;;;9.50;8.25;;;;;;;;4978905;28;45457;-81
2023/04/20 11:39:08;;;;;;;;;18.75;15.25;;;;;;;;4978562;28;45489;-82
2023/04/20 11:41:33;;;;;;;;;14.00;14.00;;;;;;;;4978415;28;45643;-83
2023/04/20 11:43:59;;;;;;;;;13.00;13.00;;;;;;;;4978552;28;45412;-83
2023/04/20 11:46:24;;;;;;;;;16.00;13.50;;;;;;;;4978558;28;45409;-82
2023/04/20 11:48:49;;;;;;;;;16.75;15.75;;;;;;;;4978562;28;46006;-83
2023/04/20 11:51:14;;;;;;;;;14.50;14.25;;;;;;;;4978358;28;45512;-82
2023/04/20 11:53:40;;;;;;;;;12.00;11.25;;;;;;;;4978288;28;45792;-82
2023/04/20 11:56:05;;;;;;;;;13.75;13.25;;;;;;;;4978393;28;45385;-83
2023/04/20 11:58:31;;;;;;;;;12.75;10.75;;;;;;;;4976964;28;47486;-83
2023/04/20 12:00:56;;;;;;;;;15.50;15.50;;;;;;;;4977123;28;45614;-84
2023/04/20 12:03:21;;;;;;;;;10.50;10.50;;;;;;;;4978259;28;45319;-83
2023/04/20 12:05:46;;;;;;;;;12.75;12.75;;;;;;;;4978349;28;45348;-82
2023/04/20 12:08:11;;;;;;;;;16.75;15.00;;;;;;;;4976926;28;46111;-84
2023/04/20 12:10:38;;;;;;;;;15.75;14.75;;;;;;;;4977995;28;45284;-83
2023/04/20 12:13:04;;;;;;;;;9.75;9.50;;;;;;;;4978261;28;45326;-83
2023/04/20 12:15:29;;;;;;;;;17.25;13.75;;;;;;;;4976691;28;45232;-81
2023/04/20 12:17:54;;;;;;;;;18.00;16.50;;;;;;;;4976684;28;45486;-82
2023/04/20 12:20:19;;;;;;;;;15.75;14.25;;;;;;;;4978132;28;45227;-83
2023/04/20 12:22:45;;;;;;;;;12.00;11.50;;;;;;;;4977880;28;45300;-81
2023/04/20 12:25:10;;;;;;;;;8.75;8.75;;;;;;;;4978270;28;45462;-82
2023/04/20 12:27:36;;;;;;;;;15.00;14.00;;;;;;;;4977684;28;45973;-80
2023/04/20 12:30:01;;;;;;;;;15.50;15.00;;;;;;;;4977467;28;45420;-80
2023/04/20 12:32:26;;;;;;;;;18.25;17.00;;;;;;;;4976867;28;45267;-82
2023/04/20 12:34:51;;;;;;;;;15.50;14.50;;;;;;;;4976583;28;45373;-80
2023/04/20 12:37:17;;;;;;;;;18.00;16.00;;;;;;;;4977853;28;46518;-81
2023/04/20 12:39:42;;;;;;;;;16.25;15.00;;;;;;;;4977180;28;45475;-82
2023/04/20 12:42:07;;;;;;;;;17.50;16.00;;;;;;;;4976596;28;45452;-81
2023/04/20 12:44:32;;;;;;;;;20.25;17.75;;;;;;;;4977906;28;45290;-83
2023/04/20 12:46:58;;;;;;;;;13.50;13.50;;;;;;;;4977428;28;45463;-83
2023/04/20 12:49:23;;;;;;;;;18.75;18.75;;;;;;;;4977537;28;45674;-81
2023/04/20 12:51:48;;;;;;;;;15.75;15.75;;;;;;;;4977618;28;45496;-80
2023/04/20 12:54:13;;;;;;;;;18.00;18.00;;;;;;;;4975860;28;45509;-81
2023/04/20 12:56:39;;;;;;;;;16.75;16.00;;;;;;;;4975922;28;48547;-81
2023/04/20 12:59:04;;;;;;;;;18.25;17.00;;;;;;;;4977501;28;45568;-82
2023/04/20 13:01:29;;;;;;;;;20.75;19.75;;;;;;;;4977432;28;46151;-82
2023/04/20 13:03:55;;;;;;;;;14.50;14.00;;;;;;;;4977531;28;45427;-83
2023/04/20 13:06:20;;;;;;;;;13.50;13.50;;;;;;;;4977093;28;47173;-81
2023/04/20 13:08:45;;;;;;;;;15.25;15.25;;;;;;;;4976773;28;45451;-81
2023/04/20 13:11:11;;;;;;;;;16.75;16.75;;;;;;;;4977547;28;45478;-81
2023/04/20 13:13:36;;;;;;;;;20.00;18.25;;;;;;;;4977186;28;45325;-82
2023/04/20 13:16:01;;;;;;;;;13.00;11.75;;;;;;;;4977386;28;45342;-84
2023/04/20 13:18:27;;;;;;;;;18.50;16.25;;;;;;;;4977337;28;45458;-83
2023/04/20 13:20:52;;;;;;;;;21.25;20.50;;;;;;;;4976689;28;45454;-83
2023/04/20 13:23:17;;;;;;;;;15.75;15.75;;;;;;;;4975907;28;45408;-81
2023/04/20 13:25:42;;;;;;;;;16.50;14.50;;;;;;;;4975086;28;47007;-81
2023/04/20 13:28:08;;;;;;;;;19.75;19.75;;;;;;;;4976201;28;45437;-83
2023/04/20 13:30:33;;;;;;;;;14.50;14.50;;;;;;;;4977761;28;45460;-82
2023/04/20 13:32:58;;;;;;;;;17.25;15.75;;;;;;;;4976857;28;45458;-82
2023/04/20 13:35:24;;;;;;;;;16.00;15.25;;;;;;;;4976406;28;46520;-82
2023/04/20 13:37:50;;;;;;;;;18.00;18.00;;;;;;;;4975831;28;45343;-83
2023/04/20 13:40:15;;;;;;;;;15.75;15.75;;;;;;;;4976423;28;45361;-81
2023/04/20 13:42:40;;;;;;;;;16.50;15.50;;;;;;;;4976616;28;45369;-82
2023/04/20 13:45:06;;;;;;;;;15.25;15.25;;;;;;;;4976555;28;45322;-83
2023/04/20 13:47:31;;;;;;;;;18.00;16.50;;;;;;;;4976712;28;45328;-81
2023/04/20 13:49:56;;;;;;;;;17.25;15.00;;;;;;;;4976816;28;45619;-82
2023/04/20 13:52:22;;;;;;;;;12.75;12.75;;;;;;;;4976500;28;45393;-81
2023/04/20 13:54:47;;;;;;;;;17.75;14.75;;;;;;;;4976231;28;46161;-81
2023/04/20 13:57:12;;;;;;;;;18.50;16.25;;;;;;;;4975260;28;45408;-80
2023/04/20 13:59:38;;;;;;;;;18.00;15.75;;;;;;;;4976437;28;45430;-81
2023/04/20 14:02:03;;;;;;;;;20.50;19.50;;;;;;;;4975303;28;45406;-82
2023/04/20 14:04:29;;;;;;;;;18.75;16.25;;;;;;;;4976281;28;45922;-82
2023/04/20 14:06:54;;;;;;;;;16.50;16.50;;;;;;;;4976229;28;45416;-82
2023/04/20 14:09:20;;;;;;;;;20.00;17.25;;;;;;;;4976570;28;45315;-82
2023/04/20 14:11:45;;;;;;;;;16.00;15.25;;;;;;;;4976499;28;45374;-81
2023/04/20 14:14:10;;;;;;;;;18.50;18.25;;;;;;;;4976239;28;46209;-82
2023/04/20 14:16:46;;;;;;;;;17.75;17.75;;;;;;;;4976400;28;45413;-81
2023/04/20 14:19:11;;;;;;;;;15.00;15.00;;;;;;;;4976798;28;45413;-80
2023/04/20 14:21:37;;;;;;;;;18.75;15.00;;;;;;;;4975907;28;45434;-81